sensor_id;sensor_type;location;lat;lon;timestamp;pressure;altitude;pressure_sealevel;temperature;humidity
30856;BME280;17570;0.000;0.000;2022-09-09T00:02:22;97050.83;;;24.27;46.08
30856;BME280;17570;0.000;0.000;2022-09-09T00:07:20;97043.77;;;26.44;40.11
30856;BME280;17570;0.000;0.000;2022-09-09T00:15:14;97037.98;;;26.84;38.93
30856;BME280;17570;0.000;0.000;2022-09-09T00:17:43;97033.75;;;26.94;38.53
30856;BME280;17570;0.000;0.000;2022-09-09T00:20:16;97033.75;;;26.94;38.61
30856;BME280;17570;0.000;0.000;2022-09-09T00:22:45;97031.89;;;26.95;38.59
30856;BME280;17570;0.000;0.000;2022-09-09T00:25:14;97039.02;;;27.01;38.28
30856;BME280;17570;0.000;0.000;2022-09-09T00:27:47;97038.20;;;27.01;38.35
30856;BME280;17570;0.000;0.000;2022-09-09T00:32:53;97040.26;;;26.99;38.24
30856;BME280;17570;0.000;0.000;2022-09-09T00:35:22;97045.31;;;26.88;38.46
30856;BME280;17570;0.000;0.000;2022-09-09T00:37:48;97043.22;;;26.90;38.55
30856;BME280;17570;0.000;0.000;2022-09-09T00:40:21;97039.75;;;26.90;38.36
30856;BME280;17570;0.000;0.000;2022-09-09T00:42:45;97042.64;;;26.88;38.44
30856;BME280;17570;0.000;0.000;2022-09-09T00:47:50;97030.00;;;26.84;38.36
30856;BME280;17570;0.000;0.000;2022-09-09T00:50:29;97023.72;;;26.78;38.61
30856;BME280;17570;0.000;0.000;2022-09-09T00:52:59;97026.66;;;26.88;38.30
30856;BME280;17570;0.000;0.000;2022-09-09T00:55:28;97022.30;;;26.76;38.40
30856;BME280;17570;0.000;0.000;2022-09-09T00:57:54;97017.44;;;26.73;38.47
30856;BME280;17570;0.000;0.000;2022-09-09T01:00:24;97022.39;;;26.69;38.61
30856;BME280;17570;0.000;0.000;2022-09-09T01:10:53;97013.13;;;26.53;38.72
30856;BME280;17570;0.000;0.000;2022-09-09T01:13:31;97010.03;;;26.56;38.62
30856;BME280;17570;0.000;0.000;2022-09-09T01:15:50;97008.41;;;26.55;38.51
30856;BME280;17570;0.000;0.000;2022-09-09T01:18:21;97009.45;;;26.54;38.68
30856;BME280;17570;0.000;0.000;2022-09-09T01:21:00;97017.44;;;26.54;38.66
30856;BME280;17570;0.000;0.000;2022-09-09T01:28:43;97002.83;;;26.38;38.80
30856;BME280;17570;0.000;0.000;2022-09-09T01:31:14;97004.24;;;26.41;38.77
30856;BME280;17570;0.000;0.000;2022-09-09T01:33:42;96999.33;;;26.44;38.65
30856;BME280;17570;0.000;0.000;2022-09-09T01:36:15;97001.58;;;26.41;38.75
30856;BME280;17570;0.000;0.000;2022-09-09T01:38:46;96997.50;;;26.38;38.62
30856;BME280;17570;0.000;0.000;2022-09-09T01:41:14;96993.45;;;26.36;38.46
30856;BME280;17570;0.000;0.000;2022-09-09T01:43:43;96995.22;;;26.42;38.89
30856;BME280;17570;0.000;0.000;2022-09-09T01:46:11;96997.96;;;26.35;38.73
30856;BME280;17570;0.000;0.000;2022-09-09T01:48:40;96998.31;;;26.39;38.51
30856;BME280;17570;0.000;0.000;2022-09-09T01:51:10;97002.62;;;26.40;38.47
30856;BME280;17570;0.000;0.000;2022-09-09T01:53:38;96990.78;;;26.36;38.75
30856;BME280;17570;0.000;0.000;2022-09-09T02:01:30;97000.48;;;26.30;38.60
30856;BME280;17570;0.000;0.000;2022-09-09T02:03:56;96994.62;;;26.22;38.88
30856;BME280;17570;0.000;0.000;2022-09-09T02:06:27;96992.23;;;26.13;38.85
30856;BME280;17570;0.000;0.000;2022-09-09T02:08:56;96983.59;;;26.18;39.00
30856;BME280;17570;0.000;0.000;2022-09-09T02:11:26;96989.30;;;26.22;39.24
30856;BME280;17570;0.000;0.000;2022-09-09T02:14:04;96984.56;;;26.24;38.71
30856;BME280;17570;0.000;0.000;2022-09-09T02:19:02;96986.11;;;26.13;38.80
30856;BME280;17570;0.000;0.000;2022-09-09T02:21:34;96987.95;;;26.12;38.85
30856;BME280;17570;0.000;0.000;2022-09-09T02:24:04;96990.90;;;26.04;38.96
30856;BME280;17570;0.000;0.000;2022-09-09T02:26:34;96993.55;;;26.04;39.15
30856;BME280;17570;0.000;0.000;2022-09-09T02:29:05;96990.90;;;26.04;39.12
30856;BME280;17570;0.000;0.000;2022-09-09T02:31:34;96989.28;;;26.03;39.11
30856;BME280;17570;0.000;0.000;2022-09-09T02:34:03;96984.77;;;26.04;39.25
30856;BME280;17570;0.000;0.000;2022-09-09T02:36:32;96992.01;;;26.15;39.05
30856;BME280;17570;0.000;0.000;2022-09-09T02:39:01;96983.45;;;26.13;38.89
30856;BME280;17570;0.000;0.000;2022-09-09T02:41:33;96990.23;;;26.09;38.95
30856;BME280;17570;0.000;0.000;2022-09-09T02:44:01;96992.97;;;26.02;39.00
30856;BME280;17570;0.000;0.000;2022-09-09T02:49:09;96992.36;;;26.00;39.12
30856;BME280;17570;0.000;0.000;2022-09-09T02:51:51;96994.09;;;25.88;39.20
30856;BME280;17570;0.000;0.000;2022-09-09T02:56:46;96995.14;;;25.87;39.37
30856;BME280;17570;0.000;0.000;2022-09-09T02:59:13;96993.90;;;25.89;39.51
30856;BME280;17570;0.000;0.000;2022-09-09T03:01:40;96994.29;;;25.93;39.20
30856;BME280;17570;0.000;0.000;2022-09-09T03:04:08;96994.29;;;25.93;39.02
30856;BME280;17570;0.000;0.000;2022-09-09T03:06:36;96996.98;;;25.86;39.15
30856;BME280;17570;0.000;0.000;2022-09-09T03:09:05;96992.48;;;25.87;39.32
30856;BME280;17570;0.000;0.000;2022-09-09T03:11:34;96991.51;;;25.81;39.32
30856;BME280;17570;0.000;0.000;2022-09-09T03:14:02;96993.90;;;25.89;39.15
30856;BME280;17570;0.000;0.000;2022-09-09T03:16:30;96998.84;;;25.86;39.16
30856;BME280;17570;0.000;0.000;2022-09-09T03:19:00;96999.10;;;25.78;39.30
30856;BME280;17570;0.000;0.000;2022-09-09T03:21:28;96994.41;;;25.73;39.40
30856;BME280;17570;0.000;0.000;2022-09-09T03:23:56;96993.20;;;25.76;39.50
30856;BME280;17570;0.000;0.000;2022-09-09T03:26:23;96998.52;;;25.76;39.33
30856;BME280;17570;0.000;0.000;2022-09-09T03:28:51;96999.26;;;25.83;39.24
30856;BME280;17570;0.000;0.000;2022-09-09T03:31:20;97001.72;;;25.84;39.16
30856;BME280;17570;0.000;0.000;2022-09-09T03:33:49;96997.87;;;25.74;39.46
30856;BME280;17570;0.000;0.000;2022-09-09T03:36:18;96997.72;;;25.68;39.38
30856;BME280;17570;0.000;0.000;2022-09-09T03:38:45;97009.00;;;25.64;39.53
30856;BME280;17570;0.000;0.000;2022-09-09T03:41:13;97012.47;;;25.64;39.42
30856;BME280;17570;0.000;0.000;2022-09-09T03:43:41;97011.45;;;25.65;39.38
30856;BME280;17570;0.000;0.000;2022-09-09T03:46:09;97011.66;;;25.64;39.63
30856;BME280;17570;0.000;0.000;2022-09-09T03:48:37;97012.11;;;25.61;39.53
30856;BME280;17570;0.000;0.000;2022-09-09T03:51:05;97011.07;;;25.62;39.52
30856;BME280;17570;0.000;0.000;2022-09-09T03:53:33;97010.03;;;25.63;39.54
30856;BME280;17570;0.000;0.000;2022-09-09T03:56:01;97006.34;;;25.64;39.43
30856;BME280;17570;0.000;0.000;2022-09-09T03:58:30;97035.00;;;25.62;39.59
30856;BME280;17570;0.000;0.000;2022-09-09T04:01:00;96997.78;;;25.62;39.27
30856;BME280;17570;0.000;0.000;2022-09-09T04:03:28;97008.44;;;25.55;39.56
30856;BME280;17570;0.000;0.000;2022-09-09T04:05:57;97012.05;;;25.67;40.78
30856;BME280;17570;0.000;0.000;2022-09-09T04:08:26;97008.28;;;25.82;40.77
30856;BME280;17570;0.000;0.000;2022-09-09T04:10:53;97012.36;;;25.84;40.74
30856;BME280;17570;0.000;0.000;2022-09-09T04:13:25;97019.30;;;25.85;40.57
30856;BME280;17570;0.000;0.000;2022-09-09T04:15:55;97009.55;;;25.79;40.30
30856;BME280;17570;0.000;0.000;2022-09-09T04:18:27;97007.08;;;25.78;40.12
30856;BME280;17570;0.000;0.000;2022-09-09T04:21:01;97010.35;;;25.80;40.15
30856;BME280;17570;0.000;0.000;2022-09-09T04:23:36;97005.27;;;25.72;40.16
30856;BME280;17570;0.000;0.000;2022-09-09T04:26:01;97011.63;;;25.70;39.80
30856;BME280;17570;0.000;0.000;2022-09-09T04:28:31;97003.03;;;25.68;39.88
30856;BME280;17570;0.000;0.000;2022-09-09T04:31:09;97002.61;;;25.72;39.89
30856;BME280;17570;0.000;0.000;2022-09-09T04:33:38;97007.92;;;25.72;40.07
30856;BME280;17570;0.000;0.000;2022-09-09T04:36:06;96999.17;;;25.64;39.90
30856;BME280;17570;0.000;0.000;2022-09-09T04:38:34;97009.22;;;25.62;40.00
30856;BME280;17570;0.000;0.000;2022-09-09T04:41:02;97009.88;;;25.58;40.01
30856;BME280;17570;0.000;0.000;2022-09-09T04:43:30;97006.17;;;25.59;40.09
30856;BME280;17570;0.000;0.000;2022-09-09T04:45:58;97007.21;;;25.58;40.12
30856;BME280;17570;0.000;0.000;2022-09-09T04:48:26;97005.59;;;25.57;40.29
30856;BME280;17570;0.000;0.000;2022-09-09T04:50:55;97003.97;;;25.56;40.29
30856;BME280;17570;0.000;0.000;2022-09-09T04:53:23;97005.63;;;25.50;40.54
30856;BME280;17570;0.000;0.000;2022-09-09T04:55:52;97008.02;;;25.58;40.45
30856;BME280;17570;0.000;0.000;2022-09-09T04:58:20;97005.98;;;25.60;40.56
30856;BME280;17570;0.000;0.000;2022-09-09T05:00:49;97011.72;;;25.57;40.80
30856;BME280;17570;0.000;0.000;2022-09-09T05:03:19;97015.41;;;25.56;40.99
30856;BME280;17570;0.000;0.000;2022-09-09T05:05:46;97014.54;;;25.62;41.03
30856;BME280;17570;0.000;0.000;2022-09-09T05:08:14;97021.48;;;25.63;41.17
30856;BME280;17570;0.000;0.000;2022-09-09T05:10:42;97021.45;;;25.70;41.34
30856;BME280;17570;0.000;0.000;2022-09-09T05:13:11;97018.95;;;25.75;41.47
30856;BME280;17570;0.000;0.000;2022-09-09T05:15:39;97015.06;;;25.78;41.68
30856;BME280;17570;0.000;0.000;2022-09-09T05:18:07;97021.08;;;25.91;41.59
30856;BME280;17570;0.000;0.000;2022-09-09T05:20:34;97022.05;;;25.97;41.27
30856;BME280;17570;0.000;0.000;2022-09-09T05:23:02;97019.39;;;25.97;41.28
30856;BME280;17570;0.000;0.000;2022-09-09T05:25:32;97024.28;;;26.00;41.50
30856;BME280;17570;0.000;0.000;2022-09-09T05:27:59;97017.88;;;26.08;41.56
30856;BME280;17570;0.000;0.000;2022-09-09T05:30:27;97017.23;;;26.12;41.75
30856;BME280;17570;0.000;0.000;2022-09-09T05:32:58;97003.27;;;26.17;41.84
30856;BME280;17570;0.000;0.000;2022-09-09T05:35:26;96996.63;;;26.26;41.91
30856;BME280;17570;0.000;0.000;2022-09-09T05:37:59;96995.58;;;26.27;41.90
30856;BME280;17570;0.000;0.000;2022-09-09T05:40:25;97000.02;;;26.33;41.87
30856;BME280;17570;0.000;0.000;2022-09-09T05:42:52;96996.11;;;26.36;41.98
30856;BME280;17570;0.000;0.000;2022-09-09T05:45:20;96996.69;;;26.38;42.30
30856;BME280;17570;0.000;0.000;2022-09-09T05:47:51;96988.88;;;26.43;42.12
30856;BME280;17570;0.000;0.000;2022-09-09T05:50:19;96984.74;;;26.47;42.09
30856;BME280;17570;0.000;0.000;2022-09-09T05:52:46;96977.36;;;26.49;42.38
30856;BME280;17570;0.000;0.000;2022-09-09T05:55:17;96983.84;;;26.53;42.38
30856;BME280;17570;0.000;0.000;2022-09-09T05:57:47;96984.08;;;26.52;42.41
30856;BME280;17570;0.000;0.000;2022-09-09T06:00:13;96987.48;;;26.59;42.40
30856;BME280;17570;0.000;0.000;2022-09-09T06:02:49;96975.36;;;26.63;42.57
30856;BME280;17570;0.000;0.000;2022-09-09T06:05:13;96988.58;;;26.69;42.65
30856;BME280;17570;0.000;0.000;2022-09-09T06:07:41;96979.11;;;26.74;42.63
30856;BME280;17570;0.000;0.000;2022-09-09T06:10:12;96979.15;;;26.85;42.24
30856;BME280;17570;0.000;0.000;2022-09-09T06:12:40;96975.23;;;26.88;42.30
30856;BME280;17570;0.000;0.000;2022-09-09T06:15:08;96971.66;;;26.94;42.36
30856;BME280;17570;0.000;0.000;2022-09-09T06:17:36;96967.05;;;27.19;43.44
30856;BME280;17570;0.000;0.000;2022-09-09T06:20:03;96976.84;;;27.37;43.58
30856;BME280;17570;0.000;0.000;2022-09-09T06:22:31;96969.17;;;27.41;43.28
30856;BME280;17570;0.000;0.000;2022-09-09T06:24:59;96972.77;;;27.46;42.91
30856;BME280;17570;0.000;0.000;2022-09-09T06:27:27;96973.13;;;27.50;42.78
30856;BME280;17570;0.000;0.000;2022-09-09T06:29:55;96970.59;;;27.55;42.67
30856;BME280;17570;0.000;0.000;2022-09-09T06:32:23;96972.80;;;27.58;42.83
30856;BME280;17570;0.000;0.000;2022-09-09T06:34:50;96971.88;;;27.64;42.58
30856;BME280;17570;0.000;0.000;2022-09-09T06:37:18;96959.95;;;27.67;42.50
30856;BME280;17570;0.000;0.000;2022-09-09T06:39:47;96968.52;;;27.69;42.41
30856;BME280;17570;0.000;0.000;2022-09-09T06:42:15;96969.95;;;27.71;42.13
30856;BME280;17570;0.000;0.000;2022-09-09T06:44:45;96963.93;;;27.76;41.67
30856;BME280;17570;0.000;0.000;2022-09-09T06:47:14;96972.86;;;27.82;41.33
30856;BME280;17570;0.000;0.000;2022-09-09T06:49:42;96960.23;;;27.89;40.99
30856;BME280;17570;0.000;0.000;2022-09-09T06:52:10;96972.98;;;27.99;41.63
30856;BME280;17570;0.000;0.000;2022-09-09T06:54:40;96968.33;;;28.06;41.45
30856;BME280;17570;0.000;0.000;2022-09-09T06:57:08;96968.80;;;28.14;41.17
30856;BME280;17570;0.000;0.000;2022-09-09T06:59:37;96965.77;;;28.22;41.08
30856;BME280;17570;0.000;0.000;2022-09-09T07:02:04;96968.66;;;28.33;40.52
30856;BME280;17570;0.000;0.000;2022-09-09T07:04:35;96972.27;;;28.38;40.54
30856;BME280;17570;0.000;0.000;2022-09-09T07:07:03;96972.48;;;28.48;40.34
30856;BME280;17570;0.000;0.000;2022-09-09T07:12:15;96975.18;;;28.77;39.92
30856;BME280;17570;0.000;0.000;2022-09-09T07:14:45;96977.85;;;28.77;40.11
30856;BME280;17570;0.000;0.000;2022-09-09T07:17:12;96980.96;;;28.86;38.58
30856;BME280;17570;0.000;0.000;2022-09-09T07:19:44;96972.07;;;29.09;39.52
30856;BME280;17570;0.000;0.000;2022-09-09T07:22:11;96986.33;;;29.43;40.19
30856;BME280;17570;0.000;0.000;2022-09-09T07:24:40;96974.38;;;29.62;39.72
30856;BME280;17570;0.000;0.000;2022-09-09T07:27:07;96967.38;;;29.78;39.26
30856;BME280;17570;0.000;0.000;2022-09-09T07:29:39;96963.23;;;29.87;38.99
30856;BME280;17570;0.000;0.000;2022-09-09T07:32:07;96957.48;;;29.95;39.01
30856;BME280;17570;0.000;0.000;2022-09-09T07:34:36;96963.71;;;30.01;38.44
30856;BME280;17570;0.000;0.000;2022-09-09T07:37:04;96961.69;;;30.08;38.49
30856;BME280;17570;0.000;0.000;2022-09-09T07:39:32;96959.91;;;30.14;38.71
30856;BME280;17570;0.000;0.000;2022-09-09T07:42:04;96966.08;;;30.14;38.43
30856;BME280;17570;0.000;0.000;2022-09-09T07:44:31;96965.41;;;30.24;38.62
30856;BME280;17570;0.000;0.000;2022-09-09T07:47:05;96967.02;;;30.25;38.09
30856;BME280;17570;0.000;0.000;2022-09-09T07:49:35;96966.86;;;30.32;38.48
30856;BME280;17570;0.000;0.000;2022-09-09T07:52:03;96967.79;;;30.42;38.03
30856;BME280;17570;0.000;0.000;2022-09-09T07:54:32;96964.59;;;30.67;38.40
30856;BME280;17570;0.000;0.000;2022-09-09T07:57:01;96954.52;;;30.96;38.53
30856;BME280;17570;0.000;0.000;2022-09-09T07:59:30;96958.91;;;31.08;37.77
30856;BME280;17570;0.000;0.000;2022-09-09T08:01:58;96953.59;;;31.13;37.47
30856;BME280;17570;0.000;0.000;2022-09-09T08:04:28;96956.82;;;31.15;37.30
30856;BME280;17570;0.000;0.000;2022-09-09T08:06:57;96963.11;;;31.25;36.54
30856;BME280;17570;0.000;0.000;2022-09-09T08:09:27;96960.01;;;31.34;36.22
30856;BME280;17570;0.000;0.000;2022-09-09T08:11:56;96954.42;;;31.40;36.00
30856;BME280;17570;0.000;0.000;2022-09-09T08:14:25;96954.77;;;31.49;35.67
30856;BME280;17570;0.000;0.000;2022-09-09T08:16:53;96943.30;;;31.59;35.10
30856;BME280;17570;0.000;0.000;2022-09-09T08:19:25;96942.83;;;31.67;34.90
30856;BME280;17570;0.000;0.000;2022-09-09T08:21:54;96945.14;;;31.85;35.40
30856;BME280;17570;0.000;0.000;2022-09-09T08:24:22;96940.91;;;31.94;35.16
30856;BME280;17570;0.000;0.000;2022-09-09T08:26:49;96934.78;;;32.04;34.61
30856;BME280;17570;0.000;0.000;2022-09-09T08:29:21;96936.44;;;32.15;34.58
30856;BME280;17570;0.000;0.000;2022-09-09T08:31:52;96932.17;;;32.19;33.64
30856;BME280;17570;0.000;0.000;2022-09-09T08:34:24;96934.36;;;32.28;32.96
30856;BME280;17570;0.000;0.000;2022-09-09T08:36:53;96928.47;;;32.36;33.81
30856;BME280;17570;0.000;0.000;2022-09-09T08:39:22;96927.73;;;32.45;33.89
30856;BME280;17570;0.000;0.000;2022-09-09T08:47:31;96930.50;;;32.61;34.68
30856;BME280;17570;0.000;0.000;2022-09-09T08:50:02;96929.70;;;32.65;35.50
30856;BME280;17570;0.000;0.000;2022-09-09T08:52:32;96934.03;;;32.76;33.95
30856;BME280;17570;0.000;0.000;2022-09-09T08:55:02;96935.17;;;32.91;34.05
30856;BME280;17570;0.000;0.000;2022-09-09T08:57:25;96929.80;;;33.01;33.38
30856;BME280;17570;0.000;0.000;2022-09-09T08:59:54;96936.27;;;33.10;33.34
30856;BME280;17570;0.000;0.000;2022-09-09T09:10:33;96920.70;;;33.28;32.53
30856;BME280;17570;0.000;0.000;2022-09-09T09:13:00;96912.91;;;33.26;32.25
30856;BME280;17570;0.000;0.000;2022-09-09T09:15:32;96913.70;;;33.32;31.63
30856;BME280;17570;0.000;0.000;2022-09-09T09:18:02;96912.64;;;33.43;31.05
30856;BME280;17570;0.000;0.000;2022-09-09T09:20:37;96911.03;;;33.52;30.42
30856;BME280;17570;0.000;0.000;2022-09-09T09:23:00;96904.83;;;33.62;31.48
30856;BME280;17570;0.000;0.000;2022-09-09T09:25:32;96911.02;;;33.72;31.63
30856;BME280;17570;0.000;0.000;2022-09-09T09:28:02;96913.14;;;33.81;30.16
30856;BME280;17570;0.000;0.000;2022-09-09T09:33:24;96903.47;;;33.95;30.28
30856;BME280;17570;0.000;0.000;2022-09-09T09:35:51;96910.70;;;33.99;30.33
30856;BME280;17570;0.000;0.000;2022-09-09T09:38:21;96906.16;;;34.00;30.50
30856;BME280;17570;0.000;0.000;2022-09-09T09:40:59;96899.91;;;34.15;29.97
30856;BME280;17570;0.000;0.000;2022-09-09T09:43:26;96898.77;;;34.26;28.65
30856;BME280;17570;0.000;0.000;2022-09-09T09:45:54;96900.63;;;34.36;29.69
30856;BME280;17570;0.000;0.000;2022-09-09T09:48:22;96891.68;;;34.45;27.89
30856;BME280;17570;0.000;0.000;2022-09-09T09:51:11;96891.39;;;34.57;29.00
30856;BME280;17570;0.000;0.000;2022-09-09T09:53:20;96893.48;;;34.70;29.90
30856;BME280;17570;0.000;0.000;2022-09-09T09:55:51;96891.52;;;34.81;27.92
30856;BME280;17570;0.000;0.000;2022-09-09T09:58:17;96892.25;;;34.92;27.86
30856;BME280;17570;0.000;0.000;2022-09-09T10:00:49;96900.84;;;35.04;28.34
30856;BME280;17570;0.000;0.000;2022-09-09T10:03:28;96891.87;;;35.14;27.61
30856;BME280;17570;0.000;0.000;2022-09-09T10:05:57;96897.89;;;35.35;26.44
30856;BME280;17570;0.000;0.000;2022-09-09T10:08:25;96895.62;;;35.52;25.46
30856;BME280;17570;0.000;0.000;2022-09-09T10:11:02;96897.91;;;35.69;26.43
30856;BME280;17570;0.000;0.000;2022-09-09T10:13:50;96888.84;;;35.84;26.47
30856;BME280;17570;0.000;0.000;2022-09-09T10:19:21;96898.23;;;35.91;26.31
30856;BME280;17570;0.000;0.000;2022-09-09T10:27:36;96898.06;;;36.31;26.35
30856;BME280;17570;0.000;0.000;2022-09-09T10:29:29;96897.33;;;36.49;26.13
30856;BME280;17570;0.000;0.000;2022-09-09T10:32:00;96904.73;;;36.62;25.68
30856;BME280;17570;0.000;0.000;2022-09-09T10:37:02;96905.99;;;36.89;25.15
30856;BME280;17570;0.000;0.000;2022-09-09T10:39:33;96901.03;;;36.96;24.30
30856;BME280;17570;0.000;0.000;2022-09-09T10:42:09;96896.40;;;37.15;24.78
30856;BME280;17570;0.000;0.000;2022-09-09T10:52:30;96901.33;;;37.78;24.03
30856;BME280;17570;0.000;0.000;2022-09-09T10:57:45;96895.34;;;38.23;23.82
30856;BME280;17570;0.000;0.000;2022-09-09T11:00:18;96900.08;;;38.45;23.77
30856;BME280;17570;0.000;0.000;2022-09-09T11:02:48;96885.38;;;38.60;23.73
30856;BME280;17570;0.000;0.000;2022-09-09T11:05:17;96886.86;;;38.79;23.58
30856;BME280;17570;0.000;0.000;2022-09-09T11:07:48;96884.49;;;39.00;23.62
30856;BME280;17570;0.000;0.000;2022-09-09T11:10:20;96890.06;;;39.18;23.32
30856;BME280;17570;0.000;0.000;2022-09-09T11:12:48;96885.81;;;39.25;22.85
30856;BME280;17570;0.000;0.000;2022-09-09T11:15:18;96888.27;;;39.36;22.83
30856;BME280;17570;0.000;0.000;2022-09-09T11:17:56;96890.30;;;39.52;23.14
30856;BME280;17570;0.000;0.000;2022-09-09T11:20:23;96898.27;;;39.71;23.30
30856;BME280;17570;0.000;0.000;2022-09-09T11:22:57;96884.25;;;39.78;23.28
30856;BME280;17570;0.000;0.000;2022-09-09T11:25:43;96879.00;;;39.90;23.73
30856;BME280;17570;0.000;0.000;2022-09-09T11:30:48;96885.23;;;39.91;23.99
30856;BME280;17570;0.000;0.000;2022-09-09T11:38:47;96880.78;;;39.95;23.31
30856;BME280;17570;0.000;0.000;2022-09-09T11:41:16;96872.91;;;39.85;22.42
30856;BME280;17570;0.000;0.000;2022-09-09T11:43:49;96881.06;;;39.85;21.99
30856;BME280;17570;0.000;0.000;2022-09-09T11:46:19;96887.62;;;39.84;22.29
30856;BME280;17570;0.000;0.000;2022-09-09T11:49:03;96888.52;;;39.70;21.81
30856;BME280;17570;0.000;0.000;2022-09-09T11:51:27;96881.08;;;39.62;21.58
30856;BME280;17570;0.000;0.000;2022-09-09T11:53:57;96872.67;;;39.41;21.06
30856;BME280;17570;0.000;0.000;2022-09-09T11:56:42;96882.04;;;39.35;22.94
30856;BME280;17570;0.000;0.000;2022-09-09T11:59:17;96876.06;;;39.24;21.83
30856;BME280;17570;0.000;0.000;2022-09-09T12:01:36;96875.78;;;39.12;22.93
30856;BME280;17570;0.000;0.000;2022-09-09T12:04:17;96879.26;;;39.04;24.25
30856;BME280;17570;0.000;0.000;2022-09-09T12:06:46;96876.16;;;38.97;24.72
30856;BME280;17570;0.000;0.000;2022-09-09T12:11:50;96879.12;;;38.73;24.74
30856;BME280;17570;0.000;0.000;2022-09-09T12:14:34;96880.95;;;38.64;25.00
30856;BME280;17570;0.000;0.000;2022-09-09T12:16:47;96882.47;;;38.56;25.33
30856;BME280;17570;0.000;0.000;2022-09-09T12:19:18;96886.20;;;38.46;25.16
30856;BME280;17570;0.000;0.000;2022-09-09T12:21:54;96875.89;;;38.35;25.45
30856;BME280;17570;0.000;0.000;2022-09-09T12:24:22;96872.36;;;38.20;25.88
30856;BME280;17570;0.000;0.000;2022-09-09T12:26:58;96864.44;;;38.10;25.86
30856;BME280;17570;0.000;0.000;2022-09-09T12:32:15;96862.32;;;38.07;26.23
30856;BME280;17570;0.000;0.000;2022-09-09T12:37:49;96869.30;;;37.81;26.70
30856;BME280;17570;0.000;0.000;2022-09-09T12:40:22;96867.25;;;37.59;26.70
30856;BME280;17570;0.000;0.000;2022-09-09T12:42:50;96858.83;;;37.46;27.03
30856;BME280;17570;0.000;0.000;2022-09-09T12:45:22;96858.61;;;37.43;26.21
30856;BME280;17570;0.000;0.000;2022-09-09T12:48:03;96858.73;;;37.51;26.65
30856;BME280;17570;0.000;0.000;2022-09-09T12:50:31;96855.81;;;37.48;25.88
30856;BME280;17570;0.000;0.000;2022-09-09T12:53:00;96865.04;;;37.47;25.85
30856;BME280;17570;0.000;0.000;2022-09-09T12:55:28;96859.53;;;37.52;26.68
30856;BME280;17570;0.000;0.000;2022-09-09T12:57:57;96866.27;;;37.55;26.60
30856;BME280;17570;0.000;0.000;2022-09-09T13:00:26;96868.36;;;37.58;26.94
30856;BME280;17570;0.000;0.000;2022-09-09T13:02:55;96871.88;;;37.58;25.90
30856;BME280;17570;0.000;0.000;2022-09-09T13:05:33;96872.89;;;37.62;26.42
30856;BME280;17570;0.000;0.000;2022-09-09T13:08:00;96867.87;;;37.56;26.29
30856;BME280;17570;0.000;0.000;2022-09-09T13:10:23;96862.55;;;37.50;26.52
30856;BME280;17570;0.000;0.000;2022-09-09T13:12:50;96863.53;;;37.41;26.74
30856;BME280;17570;0.000;0.000;2022-09-09T13:15:26;96870.61;;;37.37;26.89
30856;BME280;17570;0.000;0.000;2022-09-09T13:17:54;96862.45;;;37.23;27.49
30856;BME280;17570;0.000;0.000;2022-09-09T13:20:22;96858.22;;;37.17;27.87
30856;BME280;17570;0.000;0.000;2022-09-09T13:22:51;96854.69;;;37.16;28.05
30856;BME280;17570;0.000;0.000;2022-09-09T13:25:21;96846.56;;;37.16;28.02
30856;BME280;17570;0.000;0.000;2022-09-09T13:27:54;96850.25;;;37.07;28.51
30856;BME280;17570;0.000;0.000;2022-09-09T13:30:27;96856.70;;;36.92;28.74
30856;BME280;17570;0.000;0.000;2022-09-09T13:33:04;96854.44;;;36.80;28.79
30856;BME280;17570;0.000;0.000;2022-09-09T13:35:33;96858.97;;;36.66;29.34
30856;BME280;17570;0.000;0.000;2022-09-09T13:38:06;96855.73;;;36.45;30.06
30856;BME280;17570;0.000;0.000;2022-09-09T13:40:30;96853.06;;;36.40;29.55
30856;BME280;17570;0.000;0.000;2022-09-09T13:42:57;96854.01;;;36.30;30.23
30856;BME280;17570;0.000;0.000;2022-09-09T13:45:25;96850.66;;;36.38;30.07
30856;BME280;17570;0.000;0.000;2022-09-09T13:47:53;96846.70;;;36.31;30.85
30856;BME280;17570;0.000;0.000;2022-09-09T13:50:25;96851.00;;;36.32;31.26
30856;BME280;17570;0.000;0.000;2022-09-09T13:52:54;96847.20;;;36.33;31.71
30856;BME280;17570;0.000;0.000;2022-09-09T13:55:27;96848.53;;;36.35;31.66
30856;BME280;17570;0.000;0.000;2022-09-09T13:57:55;96851.97;;;36.41;32.06
30856;BME280;17570;0.000;0.000;2022-09-09T14:00:23;96839.09;;;36.57;30.89
30856;BME280;17570;0.000;0.000;2022-09-09T14:02:51;96835.35;;;36.71;30.67
30856;BME280;17570;0.000;0.000;2022-09-09T14:05:20;96553.35;;;35.01;29.98
30856;BME280;17570;0.000;0.000;2022-09-09T14:07:49;96835.91;;;36.87;29.72
30856;BME280;17570;0.000;0.000;2022-09-09T14:10:17;96833.68;;;36.94;29.38
30856;BME280;17570;0.000;0.000;2022-09-09T14:12:46;96835.77;;;36.97;28.50
30856;BME280;17570;0.000;0.000;2022-09-09T14:15:13;96831.47;;;36.96;28.74
30856;BME280;17570;0.000;0.000;2022-09-09T14:17:41;96829.06;;;36.95;28.55
30856;BME280;17570;0.000;0.000;2022-09-09T14:20:09;96840.61;;;37.00;28.38
30856;BME280;17570;0.000;0.000;2022-09-09T14:22:38;96834.89;;;37.02;28.27
30856;BME280;17570;0.000;0.000;2022-09-09T14:25:06;96834.89;;;37.02;28.67
30856;BME280;17570;0.000;0.000;2022-09-09T14:27:34;96837.32;;;37.03;28.16
30856;BME280;17570;0.000;0.000;2022-09-09T14:30:01;96844.42;;;36.99;28.26
30856;BME280;17570;0.000;0.000;2022-09-09T14:32:29;96841.41;;;37.01;28.70
30856;BME280;17570;0.000;0.000;2022-09-09T14:34:56;96846.33;;;36.99;29.07
30856;BME280;17570;0.000;0.000;2022-09-09T14:37:24;96842.07;;;36.93;29.49
30856;BME280;17570;0.000;0.000;2022-09-09T14:39:52;96840.91;;;36.80;30.22
30856;BME280;17570;0.000;0.000;2022-09-09T14:42:20;96837.26;;;36.52;30.55
30856;BME280;17570;0.000;0.000;2022-09-09T14:44:48;96842.83;;;36.37;30.56
30856;BME280;17570;0.000;0.000;2022-09-09T14:47:16;96844.63;;;36.22;30.67
30856;BME280;17570;0.000;0.000;2022-09-09T14:49:43;96845.80;;;36.16;31.15
30856;BME280;17570;0.000;0.000;2022-09-09T14:52:12;96842.06;;;36.12;31.54
30856;BME280;17570;0.000;0.000;2022-09-09T14:54:39;96844.03;;;36.07;31.88
30856;BME280;17570;0.000;0.000;2022-09-09T14:57:07;96842.49;;;36.00;32.61
30856;BME280;17570;0.000;0.000;2022-09-09T14:59:34;96841.16;;;35.98;32.81